sensor_id;sensor_type;location;lat;lon;timestamp;P1;durP1;ratioP1;P2;durP2;ratioP2
7497;SDS011;3790;48.806;9.140;2022-07-24T00:03:49;0.45;;;0.30;;
7497;SDS011;3790;48.806;9.140;2022-07-24T00:08:50;0.20;;;0.20;;
7497;SDS011;3790;48.806;9.140;2022-07-24T00:13:50;0.40;;;0.30;;
7497;SDS011;3790;48.806;9.140;2022-07-24T00:18:51;0.38;;;0.30;;
7497;SDS011;3790;48.806;9.140;2022-07-24T00:23:51;0.95;;;0.63;;
7497;SDS011;3790;48.806;9.140;2022-07-24T00:28:52;0.32;;;0.32;;
7497;SDS011;3790;48.806;9.140;2022-07-24T00:33:52;0.65;;;0.40;;
7497;SDS011;3790;48.806;9.140;2022-07-24T00:38:53;0.47;;;0.43;;
7497;SDS011;3790;48.806;9.140;2022-07-24T00:44:01;0.63;;;0.40;;
7497;SDS011;3790;48.806;9.140;2022-07-24T00:49:08;0.52;;;0.30;;
7497;SDS011;3790;48.806;9.140;2022-07-24T00:54:13;1.02;;;0.52;;
7497;SDS011;3790;48.806;9.140;2022-07-24T00:59:15;0.20;;;0.20;;
7497;SDS011;3790;48.806;9.140;2022-07-24T01:04:16;0.40;;;0.28;;
7497;SDS011;3790;48.806;9.140;2022-07-24T01:09:17;1.48;;;0.47;;
7497;SDS011;3790;48.806;9.140;2022-07-24T01:14:18;0.30;;;0.30;;
7497;SDS011;3790;48.806;9.140;2022-07-24T01:19:19;0.20;;;0.20;;
7497;SDS011;3790;48.806;9.140;2022-07-24T01:24:20;0.15;;;0.15;;
7497;SDS011;3790;48.806;9.140;2022-07-24T01:29:21;0.30;;;0.30;;
7497;SDS011;3790;48.806;9.140;2022-07-24T01:34:22;0.40;;;0.30;;
7497;SDS011;3790;48.806;9.140;2022-07-24T01:39:22;0.75;;;0.30;;
7497;SDS011;3790;48.806;9.140;2022-07-24T01:44:23;0.57;;;0.40;;
7497;SDS011;3790;48.806;9.140;2022-07-24T01:49:23;0.20;;;0.20;;
7497;SDS011;3790;48.806;9.140;2022-07-24T01:54:24;0.88;;;0.45;;
7497;SDS011;3790;48.806;9.140;2022-07-24T01:59:24;0.70;;;0.50;;
7497;SDS011;3790;48.806;9.140;2022-07-24T02:04:25;0.40;;;0.30;;
7497;SDS011;3790;48.806;9.140;2022-07-24T02:09:25;0.20;;;0.20;;
7497;SDS011;3790;48.806;9.140;2022-07-24T02:14:26;0.28;;;0.28;;
7497;SDS011;3790;48.806;9.140;2022-07-24T02:19:27;0.55;;;0.38;;
7497;SDS011;3790;48.806;9.140;2022-07-24T02:24:27;0.20;;;0.20;;
7497;SDS011;3790;48.806;9.140;2022-07-24T02:29:28;0.38;;;0.38;;
7497;SDS011;3790;48.806;9.140;2022-07-24T02:34:28;0.28;;;0.28;;
7497;SDS011;3790;48.806;9.140;2022-07-24T02:39:29;0.60;;;0.43;;
7497;SDS011;3790;48.806;9.140;2022-07-24T02:44:29;0.38;;;0.30;;
7497;SDS011;3790;48.806;9.140;2022-07-24T02:49:30;0.20;;;0.20;;
7497;SDS011;3790;48.806;9.140;2022-07-24T02:54:30;0.20;;;0.20;;
7497;SDS011;3790;48.806;9.140;2022-07-24T02:59:31;0.20;;;0.20;;
7497;SDS011;3790;48.806;9.140;2022-07-24T03:04:31;0.20;;;0.20;;
7497;SDS011;3790;48.806;9.140;2022-07-24T03:09:32;0.30;;;0.30;;
7497;SDS011;3790;48.806;9.140;2022-07-24T03:14:32;0.28;;;0.28;;
7497;SDS011;3790;48.806;9.140;2022-07-24T03:19:33;0.68;;;0.50;;
7497;SDS011;3790;48.806;9.140;2022-07-24T03:24:34;0.13;;;0.13;;
7497;SDS011;3790;48.806;9.140;2022-07-24T03:29:34;0.30;;;0.30;;
7497;SDS011;3790;48.806;9.140;2022-07-24T03:34:35;0.17;;;0.17;;
7497;SDS011;3790;48.806;9.140;2022-07-24T03:39:35;0.75;;;0.43;;
7497;SDS011;3790;48.806;9.140;2022-07-24T03:44:36;0.38;;;0.30;;
7497;SDS011;3790;48.806;9.140;2022-07-24T03:49:36;0.15;;;0.15;;
7497;SDS011;3790;48.806;9.140;2022-07-24T03:54:37;0.20;;;0.20;;
7497;SDS011;3790;48.806;9.140;2022-07-24T03:59:37;0.55;;;0.28;;
7497;SDS011;3790;48.806;9.140;2022-07-24T04:04:38;0.35;;;0.30;;
7497;SDS011;3790;48.806;9.140;2022-07-24T04:09:38;0.10;;;0.10;;
7497;SDS011;3790;48.806;9.140;2022-07-24T04:14:39;0.47;;;0.30;;
7497;SDS011;3790;48.806;9.140;2022-07-24T04:19:40;0.30;;;0.30;;
7497;SDS011;3790;48.806;9.140;2022-07-24T04:24:40;0.28;;;0.28;;
7497;SDS011;3790;48.806;9.140;2022-07-24T04:29:41;0.30;;;0.30;;
7497;SDS011;3790;48.806;9.140;2022-07-24T04:34:41;0.35;;;0.35;;
7497;SDS011;3790;48.806;9.140;2022-07-24T04:39:41;0.30;;;0.30;;
7497;SDS011;3790;48.806;9.140;2022-07-24T04:44:42;0.32;;;0.30;;
7497;SDS011;3790;48.806;9.140;2022-07-24T04:49:42;0.75;;;0.57;;
7497;SDS011;3790;48.806;9.140;2022-07-24T04:54:43;0.30;;;0.30;;
7497;SDS011;3790;48.806;9.140;2022-07-24T04:59:43;0.52;;;0.40;;
7497;SDS011;3790;48.806;9.140;2022-07-24T05:04:44;0.17;;;0.17;;
7497;SDS011;3790;48.806;9.140;2022-07-24T05:09:44;0.55;;;0.35;;
7497;SDS011;3790;48.806;9.140;2022-07-24T05:14:45;0.47;;;0.35;;
7497;SDS011;3790;48.806;9.140;2022-07-24T05:19:45;0.40;;;0.30;;
7497;SDS011;3790;48.806;9.140;2022-07-24T05:24:46;0.63;;;0.30;;
7497;SDS011;3790;48.806;9.140;2022-07-24T05:29:46;0.63;;;0.40;;
7497;SDS011;3790;48.806;9.140;2022-07-24T05:34:47;0.30;;;0.30;;
7497;SDS011;3790;48.806;9.140;2022-07-24T05:39:48;0.30;;;0.28;;
7497;SDS011;3790;48.806;9.140;2022-07-24T05:44:48;0.30;;;0.30;;
7497;SDS011;3790;48.806;9.140;2022-07-24T05:49:49;0.22;;;0.20;;
7497;SDS011;3790;48.806;9.140;2022-07-24T05:54:53;0.32;;;0.32;;
7497;SDS011;3790;48.806;9.140;2022-07-24T05:59:53;0.20;;;0.20;;
7497;SDS011;3790;48.806;9.140;2022-07-24T06:04:54;0.30;;;0.20;;
7497;SDS011;3790;48.806;9.140;2022-07-24T06:09:55;0.55;;;0.30;;
7497;SDS011;3790;48.806;9.140;2022-07-24T06:14:56;0.10;;;0.10;;
7497;SDS011;3790;48.806;9.140;2022-07-24T06:19:56;0.22;;;0.22;;
7497;SDS011;3790;48.806;9.140;2022-07-24T06:24:57;0.40;;;0.40;;
7497;SDS011;3790;48.806;9.140;2022-07-24T06:29:57;0.38;;;0.35;;
7497;SDS011;3790;48.806;9.140;2022-07-24T06:34:58;0.40;;;0.32;;
7497;SDS011;3790;48.806;9.140;2022-07-24T06:39:58;0.30;;;0.20;;
7497;SDS011;3790;48.806;9.140;2022-07-24T06:44:59;0.38;;;0.30;;
7497;SDS011;3790;48.806;9.140;2022-07-24T06:49:59;0.50;;;0.35;;
7497;SDS011;3790;48.806;9.140;2022-07-24T06:55:00;0.43;;;0.38;;
7497;SDS011;3790;48.806;9.140;2022-07-24T07:00:01;0.38;;;0.32;;
7497;SDS011;3790;48.806;9.140;2022-07-24T07:05:03;0.73;;;0.45;;
7497;SDS011;3790;48.806;9.140;2022-07-24T07:10:05;0.35;;;0.25;;
7497;SDS011;3790;48.806;9.140;2022-07-24T07:15:08;0.10;;;0.10;;
7497;SDS011;3790;48.806;9.140;2022-07-24T07:20:10;0.22;;;0.22;;
7497;SDS011;3790;48.806;9.140;2022-07-24T07:25:11;0.38;;;0.38;;
7497;SDS011;3790;48.806;9.140;2022-07-24T07:30:12;0.77;;;0.50;;
7497;SDS011;3790;48.806;9.140;2022-07-24T07:35:13;0.43;;;0.35;;
7497;SDS011;3790;48.806;9.140;2022-07-24T07:40:13;1.17;;;0.60;;
7497;SDS011;3790;48.806;9.140;2022-07-24T07:45:14;1.15;;;0.93;;
7497;SDS011;3790;48.806;9.140;2022-07-24T07:50:14;2.13;;;1.25;;
7497;SDS011;3790;48.806;9.140;2022-07-24T07:55:15;1.45;;;0.98;;
7497;SDS011;3790;48.806;9.140;2022-07-24T08:00:16;1.92;;;1.17;;
7497;SDS011;3790;48.806;9.140;2022-07-24T08:05:17;1.55;;;0.93;;
7497;SDS011;3790;48.806;9.140;2022-07-24T08:10:17;1.50;;;0.80;;
7497;SDS011;3790;48.806;9.140;2022-07-24T08:15:18;1.20;;;0.90;;
7497;SDS011;3790;48.806;9.140;2022-07-24T08:20:18;2.05;;;1.40;;
7497;SDS011;3790;48.806;9.140;2022-07-24T08:25:20;2.38;;;1.20;;
7497;SDS011;3790;48.806;9.140;2022-07-24T08:30:21;0.77;;;0.63;;
7497;SDS011;3790;48.806;9.140;2022-07-24T08:35:22;1.50;;;0.73;;
7497;SDS011;3790;48.806;9.140;2022-07-24T08:40:23;1.13;;;0.80;;
7497;SDS011;3790;48.806;9.140;2022-07-24T08:45:24;0.88;;;0.55;;
7497;SDS011;3790;48.806;9.140;2022-07-24T08:50:24;2.17;;;1.10;;
7497;SDS011;3790;48.806;9.140;2022-07-24T08:55:25;1.77;;;0.82;;
7497;SDS011;3790;48.806;9.140;2022-07-24T09:00:26;1.27;;;0.90;;
7497;SDS011;3790;48.806;9.140;2022-07-24T09:05:28;1.27;;;0.90;;
7497;SDS011;3790;48.806;9.140;2022-07-24T09:10:31;1.08;;;0.73;;
7497;SDS011;3790;48.806;9.140;2022-07-24T09:15:42;1.35;;;0.98;;
7497;SDS011;3790;48.806;9.140;2022-07-24T09:20:47;3.72;;;1.58;;
7497;SDS011;3790;48.806;9.140;2022-07-24T09:25:53;1.35;;;1.02;;
7497;SDS011;3790;48.806;9.140;2022-07-24T09:30:54;1.55;;;1.20;;
7497;SDS011;3790;48.806;9.140;2022-07-24T09:36:02;1.13;;;0.82;;
7497;SDS011;3790;48.806;9.140;2022-07-24T09:41:18;1.55;;;1.08;;
7497;SDS011;3790;48.806;9.140;2022-07-24T09:46:24;0.82;;;0.70;;
7497;SDS011;3790;48.806;9.140;2022-07-24T09:51:26;2.97;;;1.10;;
7497;SDS011;3790;48.806;9.140;2022-07-24T09:56:29;1.30;;;0.93;;
7497;SDS011;3790;48.806;9.140;2022-07-24T10:01:29;2.00;;;1.33;;
7497;SDS011;3790;48.806;9.140;2022-07-24T10:06:30;1.88;;;1.15;;
7497;SDS011;3790;48.806;9.140;2022-07-24T10:11:31;2.55;;;1.17;;
7497;SDS011;3790;48.806;9.140;2022-07-24T10:16:35;1.63;;;1.00;;
7497;SDS011;3790;48.806;9.140;2022-07-24T10:21:45;1.05;;;0.60;;
7497;SDS011;3790;48.806;9.140;2022-07-24T10:26:53;0.68;;;0.47;;
7497;SDS011;3790;48.806;9.140;2022-07-24T10:32:03;0.98;;;0.82;;
7497;SDS011;3790;48.806;9.140;2022-07-24T10:42:26;1.48;;;1.15;;
7497;SDS011;3790;48.806;9.140;2022-07-24T10:47:26;1.70;;;0.80;;
7497;SDS011;3790;48.806;9.140;2022-07-24T10:52:28;1.23;;;1.10;;
7497;SDS011;3790;48.806;9.140;2022-07-24T11:03:19;1.83;;;1.08;;
7497;SDS011;3790;48.806;9.140;2022-07-24T11:18:31;1.42;;;0.88;;
7497;SDS011;3790;48.806;9.140;2022-07-24T11:23:32;2.42;;;1.33;;
7497;SDS011;3790;48.806;9.140;2022-07-24T11:28:32;1.17;;;0.68;;
7497;SDS011;3790;48.806;9.140;2022-07-24T11:33:33;2.83;;;1.63;;
7497;SDS011;3790;48.806;9.140;2022-07-24T11:38:34;2.20;;;1.10;;
7497;SDS011;3790;48.806;9.140;2022-07-24T11:43:49;1.33;;;0.95;;
7497;SDS011;3790;48.806;9.140;2022-07-24T11:49:01;1.02;;;0.73;;
7497;SDS011;3790;48.806;9.140;2022-07-24T11:54:05;0.80;;;0.75;;
7497;SDS011;3790;48.806;9.140;2022-07-24T11:59:28;1.85;;;1.13;;
7497;SDS011;3790;48.806;9.140;2022-07-24T12:04:30;1.48;;;0.90;;
7497;SDS011;3790;48.806;9.140;2022-07-24T12:09:31;1.48;;;0.98;;
7497;SDS011;3790;48.806;9.140;2022-07-24T12:14:32;1.83;;;1.10;;
7497;SDS011;3790;48.806;9.140;2022-07-24T12:19:33;1.90;;;1.13;;
7497;SDS011;3790;48.806;9.140;2022-07-24T12:24:33;1.33;;;1.15;;
7497;SDS011;3790;48.806;9.140;2022-07-24T12:29:40;1.27;;;0.77;;
7497;SDS011;3790;48.806;9.140;2022-07-24T12:34:42;2.53;;;1.00;;
7497;SDS011;3790;48.806;9.140;2022-07-24T12:44:47;2.33;;;1.45;;
7497;SDS011;3790;48.806;9.140;2022-07-24T12:49:48;1.98;;;1.10;;
7497;SDS011;3790;48.806;9.140;2022-07-24T12:54:51;1.60;;;0.85;;
7497;SDS011;3790;48.806;9.140;2022-07-24T12:59:51;1.38;;;1.00;;
7497;SDS011;3790;48.806;9.140;2022-07-24T13:05:00;0.60;;;0.60;;
7497;SDS011;3790;48.806;9.140;2022-07-24T13:10:00;1.90;;;1.10;;
7497;SDS011;3790;48.806;9.140;2022-07-24T13:15:01;1.38;;;0.98;;
7497;SDS011;3790;48.806;9.140;2022-07-24T13:20:01;1.30;;;0.80;;
7497;SDS011;3790;48.806;9.140;2022-07-24T13:25:06;1.23;;;0.77;;
7497;SDS011;3790;48.806;9.140;2022-07-24T13:30:07;1.65;;;0.80;;
7497;SDS011;3790;48.806;9.140;2022-07-24T13:35:08;1.85;;;1.35;;
7497;SDS011;3790;48.806;9.140;2022-07-24T13:40:09;1.73;;;1.23;;
7497;SDS011;3790;48.806;9.140;2022-07-24T13:45:12;1.00;;;0.65;;
7497;SDS011;3790;48.806;9.140;2022-07-24T13:50:12;1.10;;;0.93;;
7497;SDS011;3790;48.806;9.140;2022-07-24T13:55:13;2.58;;;1.25;;
7497;SDS011;3790;48.806;9.140;2022-07-24T14:00:13;0.98;;;0.73;;
7497;SDS011;3790;48.806;9.140;2022-07-24T14:05:14;1.48;;;0.90;;
7497;SDS011;3790;48.806;9.140;2022-07-24T14:10:15;2.22;;;0.95;;
7497;SDS011;3790;48.806;9.140;2022-07-24T14:15:16;1.85;;;1.15;;
7497;SDS011;3790;48.806;9.140;2022-07-24T14:20:17;2.35;;;1.13;;
7497;SDS011;3790;48.806;9.140;2022-07-24T14:25:17;2.08;;;0.95;;
7497;SDS011;3790;48.806;9.140;2022-07-24T14:30:18;1.08;;;0.98;;
7497;SDS011;3790;48.806;9.140;2022-07-24T14:35:18;1.77;;;1.17;;
7497;SDS011;3790;48.806;9.140;2022-07-24T14:40:19;1.10;;;0.80;;
7497;SDS011;3790;48.806;9.140;2022-07-24T14:45:20;1.27;;;0.77;;
7497;SDS011;3790;48.806;9.140;2022-07-24T14:50:21;1.15;;;0.82;;
7497;SDS011;3790;48.806;9.140;2022-07-24T14:55:21;1.20;;;0.90;;
7497;SDS011;3790;48.806;9.140;2022-07-24T15:00:22;1.27;;;0.68;;
7497;SDS011;3790;48.806;9.140;2022-07-24T15:05:22;1.48;;;0.80;;
7497;SDS011;3790;48.806;9.140;2022-07-24T15:10:23;1.55;;;0.90;;
7497;SDS011;3790;48.806;9.140;2022-07-24T15:15:23;1.17;;;0.77;;
7497;SDS011;3790;48.806;9.140;2022-07-24T15:20:24;0.88;;;0.63;;
7497;SDS011;3790;48.806;9.140;2022-07-24T15:25:25;1.92;;;1.10;;
7497;SDS011;3790;48.806;9.140;2022-07-24T15:30:25;1.55;;;0.73;;
7497;SDS011;3790;48.806;9.140;2022-07-24T15:35:27;2.03;;;1.10;;
7497;SDS011;3790;48.806;9.140;2022-07-24T15:40:28;0.95;;;0.85;;
7497;SDS011;3790;48.806;9.140;2022-07-24T15:45:30;1.38;;;0.95;;
7497;SDS011;3790;48.806;9.140;2022-07-24T15:50:31;1.00;;;0.80;;
7497;SDS011;3790;48.806;9.140;2022-07-24T15:55:31;1.80;;;0.90;;
7497;SDS011;3790;48.806;9.140;2022-07-24T16:00:32;1.27;;;0.77;;
7497;SDS011;3790;48.806;9.140;2022-07-24T16:05:33;0.65;;;0.50;;
7497;SDS011;3790;48.806;9.140;2022-07-24T16:10:35;0.93;;;0.60;;
7497;SDS011;3790;48.806;9.140;2022-07-24T16:15:36;0.75;;;0.65;;
7497;SDS011;3790;48.806;9.140;2022-07-24T16:20:37;0.40;;;0.30;;
7497;SDS011;3790;48.806;9.140;2022-07-24T16:25:37;1.02;;;0.82;;
7497;SDS011;3790;48.806;9.140;2022-07-24T16:30:38;1.30;;;0.88;;
7497;SDS011;3790;48.806;9.140;2022-07-24T16:35:38;2.47;;;0.80;;
7497;SDS011;3790;48.806;9.140;2022-07-24T16:40:39;0.57;;;0.47;;
7497;SDS011;3790;48.806;9.140;2022-07-24T16:45:39;0.43;;;0.40;;
7497;SDS011;3790;48.806;9.140;2022-07-24T16:50:40;0.70;;;0.60;;
7497;SDS011;3790;48.806;9.140;2022-07-24T16:55:41;1.38;;;0.65;;
7497;SDS011;3790;48.806;9.140;2022-07-24T17:00:42;0.55;;;0.52;;
7497;SDS011;3790;48.806;9.140;2022-07-24T17:05:42;0.35;;;0.30;;
7497;SDS011;3790;48.806;9.140;2022-07-24T17:10:43;0.93;;;0.60;;
7497;SDS011;3790;48.806;9.140;2022-07-24T17:15:44;1.20;;;0.52;;
7497;SDS011;3790;48.806;9.140;2022-07-24T17:20:44;0.73;;;0.60;;
7497;SDS011;3790;48.806;9.140;2022-07-24T17:25:45;1.02;;;0.63;;
7497;SDS011;3790;48.806;9.140;2022-07-24T17:30:45;0.68;;;0.57;;
7497;SDS011;3790;48.806;9.140;2022-07-24T17:35:46;1.10;;;0.98;;
7497;SDS011;3790;48.806;9.140;2022-07-24T17:40:47;1.08;;;0.55;;
7497;SDS011;3790;48.806;9.140;2022-07-24T17:45:48;1.13;;;0.57;;
7497;SDS011;3790;48.806;9.140;2022-07-24T17:50:49;0.98;;;0.70;;
7497;SDS011;3790;48.806;9.140;2022-07-24T17:55:55;0.47;;;0.30;;
7497;SDS011;3790;48.806;9.140;2022-07-24T18:00:56;1.02;;;0.65;;
7497;SDS011;3790;48.806;9.140;2022-07-24T18:05:56;0.93;;;0.70;;
7497;SDS011;3790;48.806;9.140;2022-07-24T18:10:57;0.55;;;0.50;;
7497;SDS011;3790;48.806;9.140;2022-07-24T18:15:58;0.40;;;0.32;;
7497;SDS011;3790;48.806;9.140;2022-07-24T18:20:59;1.33;;;0.85;;
7497;SDS011;3790;48.806;9.140;2022-07-24T18:25:59;0.95;;;0.47;;
7497;SDS011;3790;48.806;9.140;2022-07-24T18:31:00;1.02;;;0.60;;
7497;SDS011;3790;48.806;9.140;2022-07-24T18:36:01;0.40;;;0.40;;
7497;SDS011;3790;48.806;9.140;2022-07-24T18:41:02;0.35;;;0.35;;
7497;SDS011;3790;48.806;9.140;2022-07-24T18:46:03;0.73;;;0.60;;
7497;SDS011;3790;48.806;9.140;2022-07-24T18:51:04;0.40;;;0.40;;
7497;SDS011;3790;48.806;9.140;2022-07-24T18:56:05;1.08;;;0.63;;
7497;SDS011;3790;48.806;9.140;2022-07-24T19:01:06;1.60;;;0.98;;
7497;SDS011;3790;48.806;9.140;2022-07-24T19:06:07;1.02;;;0.80;;
7497;SDS011;3790;48.806;9.140;2022-07-24T19:11:07;0.82;;;0.63;;
7497;SDS011;3790;48.806;9.140;2022-07-24T19:16:08;0.75;;;0.47;;
7497;SDS011;3790;48.806;9.140;2022-07-24T19:21:09;0.45;;;0.38;;
7497;SDS011;3790;48.806;9.140;2022-07-24T19:26:09;1.02;;;0.73;;
7497;SDS011;3790;48.806;9.140;2022-07-24T19:31:10;0.68;;;0.50;;
7497;SDS011;3790;48.806;9.140;2022-07-24T19:36:11;0.60;;;0.40;;
7497;SDS011;3790;48.806;9.140;2022-07-24T19:41:12;1.25;;;0.47;;
7497;SDS011;3790;48.806;9.140;2022-07-24T19:46:13;1.08;;;0.60;;
7497;SDS011;3790;48.806;9.140;2022-07-24T19:51:13;0.75;;;0.60;;
7497;SDS011;3790;48.806;9.140;2022-07-24T19:56:14;0.77;;;0.57;;
7497;SDS011;3790;48.806;9.140;2022-07-24T20:01:14;0.85;;;0.70;;
7497;SDS011;3790;48.806;9.140;2022-07-24T20:06:15;0.30;;;0.30;;
7497;SDS011;3790;48.806;9.140;2022-07-24T20:11:15;0.80;;;0.65;;
7497;SDS011;3790;48.806;9.140;2022-07-24T20:16:16;1.15;;;0.68;;
7497;SDS011;3790;48.806;9.140;2022-07-24T20:21:17;1.13;;;0.55;;
7497;SDS011;3790;48.806;9.140;2022-07-24T20:26:17;0.90;;;0.57;;
7497;SDS011;3790;48.806;9.140;2022-07-24T20:31:18;0.45;;;0.45;;
7497;SDS011;3790;48.806;9.140;2022-07-24T20:36:18;1.75;;;0.55;;
7497;SDS011;3790;48.806;9.140;2022-07-24T20:41:19;1.67;;;1.10;;
7497;SDS011;3790;48.806;9.140;2022-07-24T20:46:20;2.17;;;0.77;;
7497;SDS011;3790;48.806;9.140;2022-07-24T20:51:20;1.20;;;0.70;;
7497;SDS011;3790;48.806;9.140;2022-07-24T20:56:21;0.95;;;0.70;;
7497;SDS011;3790;48.806;9.140;2022-07-24T21:01:21;0.70;;;0.35;;
7497;SDS011;3790;48.806;9.140;2022-07-24T21:06:22;1.00;;;0.47;;
7497;SDS011;3790;48.806;9.140;2022-07-24T21:11:23;0.20;;;0.20;;
7497;SDS011;3790;48.806;9.140;2022-07-24T21:16:24;1.33;;;0.75;;
7497;SDS011;3790;48.806;9.140;2022-07-24T21:21:24;0.20;;;0.20;;
7497;SDS011;3790;48.806;9.140;2022-07-24T21:26:26;0.93;;;0.50;;
7497;SDS011;3790;48.806;9.140;2022-07-24T21:31:27;0.80;;;0.52;;
7497;SDS011;3790;48.806;9.140;2022-07-24T21:36:28;0.82;;;0.60;;
7497;SDS011;3790;48.806;9.140;2022-07-24T21:41:28;0.82;;;0.47;;
7497;SDS011;3790;48.806;9.140;2022-07-24T21:46:29;0.73;;;0.60;;
7497;SDS011;3790;48.806;9.140;2022-07-24T21:51:29;0.45;;;0.43;;
7497;SDS011;3790;48.806;9.140;2022-07-24T21:56:30;0.57;;;0.30;;
7497;SDS011;3790;48.806;9.140;2022-07-24T22:01:30;1.02;;;0.80;;
7497;SDS011;3790;48.806;9.140;2022-07-24T22:06:31;0.52;;;0.40;;
7497;SDS011;3790;48.806;9.140;2022-07-24T22:11:31;0.52;;;0.35;;
7497;SDS011;3790;48.806;9.140;2022-07-24T22:16:32;0.70;;;0.40;;
7497;SDS011;3790;48.806;9.140;2022-07-24T22:21:32;0.95;;;0.60;;
7497;SDS011;3790;48.806;9.140;2022-07-24T22:26:33;2.05;;;0.68;;
7497;SDS011;3790;48.806;9.140;2022-07-24T22:31:34;0.88;;;0.65;;
7497;SDS011;3790;48.806;9.140;2022-07-24T22:36:34;0.32;;;0.32;;
7497;SDS011;3790;48.806;9.140;2022-07-24T22:41:36;0.70;;;0.38;;
7497;SDS011;3790;48.806;9.140;2022-07-24T22:46:37;0.65;;;0.40;;
7497;SDS011;3790;48.806;9.140;2022-07-24T22:51:39;0.52;;;0.40;;
7497;SDS011;3790;48.806;9.140;2022-07-24T22:56:39;0.40;;;0.30;;
7497;SDS011;3790;48.806;9.140;2022-07-24T23:01:40;0.43;;;0.43;;
7497;SDS011;3790;48.806;9.140;2022-07-24T23:06:41;0.65;;;0.45;;
7497;SDS011;3790;48.806;9.140;2022-07-24T23:11:41;0.68;;;0.43;;
7497;SDS011;3790;48.806;9.140;2022-07-24T23:16:42;0.60;;;0.52;;
7497;SDS011;3790;48.806;9.140;2022-07-24T23:21:43;0.45;;;0.30;;
7497;SDS011;3790;48.806;9.140;2022-07-24T23:26:44;1.52;;;0.70;;
7497;SDS011;3790;48.806;9.140;2022-07-24T23:31:46;0.57;;;0.45;;
7497;SDS011;3790;48.806;9.140;2022-07-24T23:36:46;0.43;;;0.40;;
7497;SDS011;3790;48.806;9.140;2022-07-24T23:41:47;0.22;;;0.22;;
7497;SDS011;3790;48.806;9.140;2022-07-24T23:46:47;1.08;;;0.57;;
7497;SDS011;3790;48.806;9.140;2022-07-24T23:51:48;0.65;;;0.47;;
7497;SDS011;3790;48.806;9.140;2022-07-24T23:56:49;0.98;;;0.50;;
